sensor_id;sensor_type;location;lat;lon;timestamp;temperature;humidity
8422;DHT22;4248;48.196;10.924;2023-05-18T00:01:06;5.40;53.30
8422;DHT22;4248;48.196;10.924;2023-05-18T00:03:32;5.40;53.20
8422;DHT22;4248;48.196;10.924;2023-05-18T00:05:58;5.40;53.30
8422;DHT22;4248;48.196;10.924;2023-05-18T00:08:34;5.40;53.40
8422;DHT22;4248;48.196;10.924;2023-05-18T00:11:01;5.40;53.20
8422;DHT22;4248;48.196;10.924;2023-05-18T00:13:28;5.40;53.40
8422;DHT22;4248;48.196;10.924;2023-05-18T00:15:54;5.40;53.50
8422;DHT22;4248;48.196;10.924;2023-05-18T00:18:19;5.40;53.60
8422;DHT22;4248;48.196;10.924;2023-05-18T00:20:49;5.40;53.70
8422;DHT22;4248;48.196;10.924;2023-05-18T00:23:15;5.30;53.80
8422;DHT22;4248;48.196;10.924;2023-05-18T00:25:41;5.30;54.00
8422;DHT22;4248;48.196;10.924;2023-05-18T00:28:06;5.30;54.10
8422;DHT22;4248;48.196;10.924;2023-05-18T00:30:32;5.30;54.30
8422;DHT22;4248;48.196;10.924;2023-05-18T00:32:58;5.30;54.40
8422;DHT22;4248;48.196;10.924;2023-05-18T00:35:23;5.20;54.50
8422;DHT22;4248;48.196;10.924;2023-05-18T00:37:49;5.20;54.70
8422;DHT22;4248;48.196;10.924;2023-05-18T00:40:15;5.10;54.80
8422;DHT22;4248;48.196;10.924;2023-05-18T00:42:41;5.10;54.80
8422;DHT22;4248;48.196;10.924;2023-05-18T00:45:07;5.10;55.00
8422;DHT22;4248;48.196;10.924;2023-05-18T00:47:32;5.00;55.00
8422;DHT22;4248;48.196;10.924;2023-05-18T00:49:58;5.00;55.00
8422;DHT22;4248;48.196;10.924;2023-05-18T00:52:23;5.00;55.10
8422;DHT22;4248;48.196;10.924;2023-05-18T00:54:50;5.00;55.30
8422;DHT22;4248;48.196;10.924;2023-05-18T00:57:17;4.90;55.30
8422;DHT22;4248;48.196;10.924;2023-05-18T00:59:44;4.90;55.50
8422;DHT22;4248;48.196;10.924;2023-05-18T01:02:10;4.80;55.50
8422;DHT22;4248;48.196;10.924;2023-05-18T01:04:36;4.80;55.60
8422;DHT22;4248;48.196;10.924;2023-05-18T01:07:02;4.80;55.70
8422;DHT22;4248;48.196;10.924;2023-05-18T01:09:30;4.80;55.80
8422;DHT22;4248;48.196;10.924;2023-05-18T01:14:34;4.70;55.90
8422;DHT22;4248;48.196;10.924;2023-05-18T01:17:15;4.70;56.00
8422;DHT22;4248;48.196;10.924;2023-05-18T01:19:59;4.70;56.10
8422;DHT22;4248;48.196;10.924;2023-05-18T01:25:09;4.70;56.10
8422;DHT22;4248;48.196;10.924;2023-05-18T01:27:40;4.60;56.10
8422;DHT22;4248;48.196;10.924;2023-05-18T01:30:12;4.60;56.10
8422;DHT22;4248;48.196;10.924;2023-05-18T01:32:39;4.60;56.10
8422;DHT22;4248;48.196;10.924;2023-05-18T01:35:10;4.60;56.10
8422;DHT22;4248;48.196;10.924;2023-05-18T01:37:36;4.60;56.20
8422;DHT22;4248;48.196;10.924;2023-05-18T01:40:02;4.60;56.20
8422;DHT22;4248;48.196;10.924;2023-05-18T01:42:30;4.60;56.20
8422;DHT22;4248;48.196;10.924;2023-05-18T01:45:02;4.60;56.20
8422;DHT22;4248;48.196;10.924;2023-05-18T01:47:30;4.60;56.10
8422;DHT22;4248;48.196;10.924;2023-05-18T01:50:13;4.60;56.30
8422;DHT22;4248;48.196;10.924;2023-05-18T01:52:53;4.60;56.10
8422;DHT22;4248;48.196;10.924;2023-05-18T01:55:23;4.60;56.10
8422;DHT22;4248;48.196;10.924;2023-05-18T01:57:51;4.50;56.10
8422;DHT22;4248;48.196;10.924;2023-05-18T02:00:19;4.60;56.20
8422;DHT22;4248;48.196;10.924;2023-05-18T02:02:47;4.60;56.20
8422;DHT22;4248;48.196;10.924;2023-05-18T02:05:12;4.60;57.00
8422;DHT22;4248;48.196;10.924;2023-05-18T02:07:39;4.60;56.40
8422;DHT22;4248;48.196;10.924;2023-05-18T02:10:05;4.50;56.30
8422;DHT22;4248;48.196;10.924;2023-05-18T02:12:31;4.50;56.40
8422;DHT22;4248;48.196;10.924;2023-05-18T02:14:57;4.50;56.40
8422;DHT22;4248;48.196;10.924;2023-05-18T02:17:24;4.50;56.40
8422;DHT22;4248;48.196;10.924;2023-05-18T02:19:51;4.50;56.50
8422;DHT22;4248;48.196;10.924;2023-05-18T02:22:16;4.50;56.70
8422;DHT22;4248;48.196;10.924;2023-05-18T02:24:42;4.50;56.50
8422;DHT22;4248;48.196;10.924;2023-05-18T02:27:07;4.50;56.60
8422;DHT22;4248;48.196;10.924;2023-05-18T02:29:33;4.50;56.70
8422;DHT22;4248;48.196;10.924;2023-05-18T02:31:58;4.50;56.90
8422;DHT22;4248;48.196;10.924;2023-05-18T02:34:24;4.40;56.80
8422;DHT22;4248;48.196;10.924;2023-05-18T02:36:51;4.40;56.90
8422;DHT22;4248;48.196;10.924;2023-05-18T02:39:17;4.40;56.90
8422;DHT22;4248;48.196;10.924;2023-05-18T02:41:43;4.40;57.10
8422;DHT22;4248;48.196;10.924;2023-05-18T02:44:09;4.40;57.10
8422;DHT22;4248;48.196;10.924;2023-05-18T02:46:36;4.40;57.20
8422;DHT22;4248;48.196;10.924;2023-05-18T02:49:02;4.30;57.20
8422;DHT22;4248;48.196;10.924;2023-05-18T02:51:27;4.40;57.30
8422;DHT22;4248;48.196;10.924;2023-05-18T02:53:54;4.30;57.30
8422;DHT22;4248;48.196;10.924;2023-05-18T02:56:19;4.30;57.30
8422;DHT22;4248;48.196;10.924;2023-05-18T02:58:45;4.30;57.20
8422;DHT22;4248;48.196;10.924;2023-05-18T03:01:10;4.30;57.20
8422;DHT22;4248;48.196;10.924;2023-05-18T03:03:37;4.30;57.30
8422;DHT22;4248;48.196;10.924;2023-05-18T03:06:04;4.30;57.30
8422;DHT22;4248;48.196;10.924;2023-05-18T03:08:30;4.40;57.40
8422;DHT22;4248;48.196;10.924;2023-05-18T03:10:59;4.40;57.50
8422;DHT22;4248;48.196;10.924;2023-05-18T03:13:24;4.40;57.70
8422;DHT22;4248;48.196;10.924;2023-05-18T03:15:50;4.40;57.70
8422;DHT22;4248;48.196;10.924;2023-05-18T03:18:17;4.40;58.10
8422;DHT22;4248;48.196;10.924;2023-05-18T03:20:43;4.40;58.20
8422;DHT22;4248;48.196;10.924;2023-05-18T03:23:09;4.40;58.30
8422;DHT22;4248;48.196;10.924;2023-05-18T03:25:35;4.40;58.40
8422;DHT22;4248;48.196;10.924;2023-05-18T03:28:02;4.40;58.60
8422;DHT22;4248;48.196;10.924;2023-05-18T03:30:33;4.50;58.90
8422;DHT22;4248;48.196;10.924;2023-05-18T03:33:02;4.60;59.00
8422;DHT22;4248;48.196;10.924;2023-05-18T03:35:28;4.60;59.00
8422;DHT22;4248;48.196;10.924;2023-05-18T03:37:53;4.60;58.80
8422;DHT22;4248;48.196;10.924;2023-05-18T03:40:19;4.60;58.90
8422;DHT22;4248;48.196;10.924;2023-05-18T03:42:45;4.70;58.90
8422;DHT22;4248;48.196;10.924;2023-05-18T03:45:12;4.70;59.00
8422;DHT22;4248;48.196;10.924;2023-05-18T03:47:38;4.80;59.00
8422;DHT22;4248;48.196;10.924;2023-05-18T03:50:04;4.80;59.00
8422;DHT22;4248;48.196;10.924;2023-05-18T03:52:34;4.80;60.00
8422;DHT22;4248;48.196;10.924;2023-05-18T03:55:01;4.90;59.00
8422;DHT22;4248;48.196;10.924;2023-05-18T03:57:27;5.00;59.30
8422;DHT22;4248;48.196;10.924;2023-05-18T03:59:53;5.00;59.20
8422;DHT22;4248;48.196;10.924;2023-05-18T04:02:19;5.10;59.30
8422;DHT22;4248;48.196;10.924;2023-05-18T04:04:45;5.10;59.50
8422;DHT22;4248;48.196;10.924;2023-05-18T04:07:12;5.10;59.50
8422;DHT22;4248;48.196;10.924;2023-05-18T04:09:41;5.20;59.60
8422;DHT22;4248;48.196;10.924;2023-05-18T04:12:07;5.20;59.60
8422;DHT22;4248;48.196;10.924;2023-05-18T04:14:32;5.30;59.70
8422;DHT22;4248;48.196;10.924;2023-05-18T04:16:58;5.40;59.60
8422;DHT22;4248;48.196;10.924;2023-05-18T04:19:33;5.40;59.50
8422;DHT22;4248;48.196;10.924;2023-05-18T04:21:59;5.50;59.40
8422;DHT22;4248;48.196;10.924;2023-05-18T04:24:29;5.60;59.40
8422;DHT22;4248;48.196;10.924;2023-05-18T04:27:00;5.60;59.40
8422;DHT22;4248;48.196;10.924;2023-05-18T04:29:26;5.80;59.20
8422;DHT22;4248;48.196;10.924;2023-05-18T04:31:56;6.00;58.70
8422;DHT22;4248;48.196;10.924;2023-05-18T04:34:28;6.00;58.70
8422;DHT22;4248;48.196;10.924;2023-05-18T04:36:55;6.10;58.80
8422;DHT22;4248;48.196;10.924;2023-05-18T04:39:23;6.10;58.80
8422;DHT22;4248;48.196;10.924;2023-05-18T04:41:50;6.20;58.70
8422;DHT22;4248;48.196;10.924;2023-05-18T04:44:23;6.40;58.50
8422;DHT22;4248;48.196;10.924;2023-05-18T04:46:48;6.50;58.20
8422;DHT22;4248;48.196;10.924;2023-05-18T04:49:14;6.60;57.90
8422;DHT22;4248;48.196;10.924;2023-05-18T04:51:40;6.80;57.90
8422;DHT22;4248;48.196;10.924;2023-05-18T04:54:06;7.60;58.30
8422;DHT22;4248;48.196;10.924;2023-05-18T04:56:33;9.00;57.60
8422;DHT22;4248;48.196;10.924;2023-05-18T04:58:59;10.10;53.20
8422;DHT22;4248;48.196;10.924;2023-05-18T05:01:24;11.30;50.00
8422;DHT22;4248;48.196;10.924;2023-05-18T05:03:50;12.20;45.60
8422;DHT22;4248;48.196;10.924;2023-05-18T05:06:16;12.90;43.80
8422;DHT22;4248;48.196;10.924;2023-05-18T05:08:41;13.60;42.30
8422;DHT22;4248;48.196;10.924;2023-05-18T05:11:07;14.20;40.60
8422;DHT22;4248;48.196;10.924;2023-05-18T05:13:33;14.50;37.70
8422;DHT22;4248;48.196;10.924;2023-05-18T05:16:00;14.80;38.40
8422;DHT22;4248;48.196;10.924;2023-05-18T05:18:26;15.30;36.70
8422;DHT22;4248;48.196;10.924;2023-05-18T05:20:52;15.60;35.70
8422;DHT22;4248;48.196;10.924;2023-05-18T05:23:18;15.60;37.00
8422;DHT22;4248;48.196;10.924;2023-05-18T05:25:44;15.70;37.00
8422;DHT22;4248;48.196;10.924;2023-05-18T05:28:09;16.30;34.60
8422;DHT22;4248;48.196;10.924;2023-05-18T05:30:35;16.90;32.00
8422;DHT22;4248;48.196;10.924;2023-05-18T05:33:01;17.30;31.60
8422;DHT22;4248;48.196;10.924;2023-05-18T05:35:26;18.00;28.80
8422;DHT22;4248;48.196;10.924;2023-05-18T05:37:52;17.70;28.00
8422;DHT22;4248;48.196;10.924;2023-05-18T05:40:17;17.60;27.80
8422;DHT22;4248;48.196;10.924;2023-05-18T05:42:43;17.80;27.20
8422;DHT22;4248;48.196;10.924;2023-05-18T05:45:09;18.10;26.50
8422;DHT22;4248;48.196;10.924;2023-05-18T05:47:35;18.00;24.10
8422;DHT22;4248;48.196;10.924;2023-05-18T05:50:00;17.80;25.00
8422;DHT22;4248;48.196;10.924;2023-05-18T05:52:26;17.30;25.50
8422;DHT22;4248;48.196;10.924;2023-05-18T05:54:53;17.00;25.80
8422;DHT22;4248;48.196;10.924;2023-05-18T05:57:19;16.90;25.90
8422;DHT22;4248;48.196;10.924;2023-05-18T05:59:45;16.90;25.20
8422;DHT22;4248;48.196;10.924;2023-05-18T06:02:10;17.20;23.90
8422;DHT22;4248;48.196;10.924;2023-05-18T06:04:36;17.50;22.90
8422;DHT22;4248;48.196;10.924;2023-05-18T06:07:02;17.80;22.10
8422;DHT22;4248;48.196;10.924;2023-05-18T06:09:28;17.40;20.90
8422;DHT22;4248;48.196;10.924;2023-05-18T06:11:53;17.30;21.90
8422;DHT22;4248;48.196;10.924;2023-05-18T06:14:19;16.50;23.30
8422;DHT22;4248;48.196;10.924;2023-05-18T06:16:46;14.80;27.60
8422;DHT22;4248;48.196;10.924;2023-05-18T06:19:11;14.00;30.50
8422;DHT22;4248;48.196;10.924;2023-05-18T06:21:37;13.20;30.70
8422;DHT22;4248;48.196;10.924;2023-05-18T06:24:03;12.90;32.30
8422;DHT22;4248;48.196;10.924;2023-05-18T06:26:29;12.90;33.20
8422;DHT22;4248;48.196;10.924;2023-05-18T06:28:55;12.80;33.00
8422;DHT22;4248;48.196;10.924;2023-05-18T06:31:21;12.80;33.10
8422;DHT22;4248;48.196;10.924;2023-05-18T06:33:47;12.90;32.70
8422;DHT22;4248;48.196;10.924;2023-05-18T06:36:14;12.80;32.30
8422;DHT22;4248;48.196;10.924;2023-05-18T06:38:40;12.80;32.90
8422;DHT22;4248;48.196;10.924;2023-05-18T06:41:06;12.90;33.20
8422;DHT22;4248;48.196;10.924;2023-05-18T06:43:31;13.00;32.80
8422;DHT22;4248;48.196;10.924;2023-05-18T06:45:57;12.70;32.90
8422;DHT22;4248;48.196;10.924;2023-05-18T06:48:25;12.60;32.70
8422;DHT22;4248;48.196;10.924;2023-05-18T06:50:52;12.60;33.10
8422;DHT22;4248;48.196;10.924;2023-05-18T06:53:17;12.60;32.60
8422;DHT22;4248;48.196;10.924;2023-05-18T06:55:43;12.70;32.30
8422;DHT22;4248;48.196;10.924;2023-05-18T06:58:08;12.70;31.90
8422;DHT22;4248;48.196;10.924;2023-05-18T07:00:34;12.80;31.80
8422;DHT22;4248;48.196;10.924;2023-05-18T07:03:00;13.00;31.10
8422;DHT22;4248;48.196;10.924;2023-05-18T07:05:26;13.30;30.60
8422;DHT22;4248;48.196;10.924;2023-05-18T07:07:52;13.10;30.00
8422;DHT22;4248;48.196;10.924;2023-05-18T07:10:17;13.20;30.00
8422;DHT22;4248;48.196;10.924;2023-05-18T07:12:43;13.30;30.00
8422;DHT22;4248;48.196;10.924;2023-05-18T07:15:09;13.30;30.00
8422;DHT22;4248;48.196;10.924;2023-05-18T07:17:36;13.40;29.90
8422;DHT22;4248;48.196;10.924;2023-05-18T07:20:02;13.40;30.00
8422;DHT22;4248;48.196;10.924;2023-05-18T07:22:30;13.40;29.60
8422;DHT22;4248;48.196;10.924;2023-05-18T07:24:55;13.40;29.80
8422;DHT22;4248;48.196;10.924;2023-05-18T07:27:23;13.40;29.60
8422;DHT22;4248;48.196;10.924;2023-05-18T07:29:48;13.30;29.50
8422;DHT22;4248;48.196;10.924;2023-05-18T07:32:14;13.30;28.40
8422;DHT22;4248;48.196;10.924;2023-05-18T07:34:39;13.60;28.60
8422;DHT22;4248;48.196;10.924;2023-05-18T07:37:08;13.60;28.30
8422;DHT22;4248;48.196;10.924;2023-05-18T07:39:33;13.50;29.00
8422;DHT22;4248;48.196;10.924;2023-05-18T07:42:00;13.70;28.30
8422;DHT22;4248;48.196;10.924;2023-05-18T07:44:26;13.80;27.70
8422;DHT22;4248;48.196;10.924;2023-05-18T07:46:52;13.90;27.10
8422;DHT22;4248;48.196;10.924;2023-05-18T07:49:17;13.80;26.50
8422;DHT22;4248;48.196;10.924;2023-05-18T07:51:43;14.10;26.60
8422;DHT22;4248;48.196;10.924;2023-05-18T07:54:09;14.20;26.60
8422;DHT22;4248;48.196;10.924;2023-05-18T07:56:34;14.30;26.90
8422;DHT22;4248;48.196;10.924;2023-05-18T07:59:00;14.20;26.00
8422;DHT22;4248;48.196;10.924;2023-05-18T08:01:26;14.10;25.70
8422;DHT22;4248;48.196;10.924;2023-05-18T08:03:54;14.40;25.50
8422;DHT22;4248;48.196;10.924;2023-05-18T08:06:20;14.40;25.00
8422;DHT22;4248;48.196;10.924;2023-05-18T08:08:46;14.60;24.20
8422;DHT22;4248;48.196;10.924;2023-05-18T08:11:12;14.40;23.00
8422;DHT22;4248;48.196;10.924;2023-05-18T08:13:37;14.50;23.90
8422;DHT22;4248;48.196;10.924;2023-05-18T08:16:03;14.50;24.10
8422;DHT22;4248;48.196;10.924;2023-05-18T08:18:29;14.60;23.60
8422;DHT22;4248;48.196;10.924;2023-05-18T08:20:54;14.70;22.90
8422;DHT22;4248;48.196;10.924;2023-05-18T08:23:20;14.90;23.20
8422;DHT22;4248;48.196;10.924;2023-05-18T08:25:47;14.90;23.10
8422;DHT22;4248;48.196;10.924;2023-05-18T08:28:13;14.90;23.00
8422;DHT22;4248;48.196;10.924;2023-05-18T08:30:38;14.90;22.70
8422;DHT22;4248;48.196;10.924;2023-05-18T08:33:04;14.90;23.00
8422;DHT22;4248;48.196;10.924;2023-05-18T08:35:30;15.00;23.40
8422;DHT22;4248;48.196;10.924;2023-05-18T08:37:56;14.80;22.80
8422;DHT22;4248;48.196;10.924;2023-05-18T08:40:24;14.80;22.30
8422;DHT22;4248;48.196;10.924;2023-05-18T08:43:11;14.90;22.00
8422;DHT22;4248;48.196;10.924;2023-05-18T08:45:50;15.00;21.70
8422;DHT22;4248;48.196;10.924;2023-05-18T08:48:16;14.90;21.70
8422;DHT22;4248;48.196;10.924;2023-05-18T08:50:47;14.90;21.90
8422;DHT22;4248;48.196;10.924;2023-05-18T08:53:15;15.00;22.10
8422;DHT22;4248;48.196;10.924;2023-05-18T08:55:44;14.90;22.30
8422;DHT22;4248;48.196;10.924;2023-05-18T08:58:13;14.80;22.80
8422;DHT22;4248;48.196;10.924;2023-05-18T09:00:41;14.70;23.00
8422;DHT22;4248;48.196;10.924;2023-05-18T09:03:07;14.70;22.60
8422;DHT22;4248;48.196;10.924;2023-05-18T09:05:33;14.60;22.90
8422;DHT22;4248;48.196;10.924;2023-05-18T09:07:59;14.30;23.50
8422;DHT22;4248;48.196;10.924;2023-05-18T09:10:25;14.30;23.60
8422;DHT22;4248;48.196;10.924;2023-05-18T09:12:51;14.40;23.90
8422;DHT22;4248;48.196;10.924;2023-05-18T09:15:19;14.50;23.80
8422;DHT22;4248;48.196;10.924;2023-05-18T09:17:46;14.40;24.10
8422;DHT22;4248;48.196;10.924;2023-05-18T09:20:11;14.30;24.70
8422;DHT22;4248;48.196;10.924;2023-05-18T09:22:38;14.60;24.10
8422;DHT22;4248;48.196;10.924;2023-05-18T09:25:07;14.80;23.80
8422;DHT22;4248;48.196;10.924;2023-05-18T09:27:33;14.80;23.90
8422;DHT22;4248;48.196;10.924;2023-05-18T09:29:59;15.20;23.30
8422;DHT22;4248;48.196;10.924;2023-05-18T09:32:25;15.40;22.60
8422;DHT22;4248;48.196;10.924;2023-05-18T09:34:52;15.70;21.90
8422;DHT22;4248;48.196;10.924;2023-05-18T09:37:19;16.00;21.40
8422;DHT22;4248;48.196;10.924;2023-05-18T09:40:00;15.90;20.80
8422;DHT22;4248;48.196;10.924;2023-05-18T09:42:48;16.00;20.90
8422;DHT22;4248;48.196;10.924;2023-05-18T09:47:42;15.80;20.80
8422;DHT22;4248;48.196;10.924;2023-05-18T09:50:08;15.40;21.30
8422;DHT22;4248;48.196;10.924;2023-05-18T09:52:44;15.70;21.30
8422;DHT22;4248;48.196;10.924;2023-05-18T09:55:11;15.60;21.00
8422;DHT22;4248;48.196;10.924;2023-05-18T09:57:47;15.50;21.30
8422;DHT22;4248;48.196;10.924;2023-05-18T10:00:17;15.50;21.30
8422;DHT22;4248;48.196;10.924;2023-05-18T10:02:48;15.50;21.50
8422;DHT22;4248;48.196;10.924;2023-05-18T10:05:26;15.50;20.90
8422;DHT22;4248;48.196;10.924;2023-05-18T10:07:55;15.50;20.80
8422;DHT22;4248;48.196;10.924;2023-05-18T10:10:24;15.40;20.20
8422;DHT22;4248;48.196;10.924;2023-05-18T10:12:51;15.30;20.60
8422;DHT22;4248;48.196;10.924;2023-05-18T10:15:19;15.40;20.00
8422;DHT22;4248;48.196;10.924;2023-05-18T10:17:46;15.40;20.00
8422;DHT22;4248;48.196;10.924;2023-05-18T10:20:18;15.70;19.70
8422;DHT22;4248;48.196;10.924;2023-05-18T10:22:47;16.00;19.60
8422;DHT22;4248;48.196;10.924;2023-05-18T10:25:21;15.90;18.70
8422;DHT22;4248;48.196;10.924;2023-05-18T10:27:49;15.80;19.30
8422;DHT22;4248;48.196;10.924;2023-05-18T10:30:15;15.70;19.40
8422;DHT22;4248;48.196;10.924;2023-05-18T10:32:42;15.70;19.40
8422;DHT22;4248;48.196;10.924;2023-05-18T10:35:10;15.80;19.50
8422;DHT22;4248;48.196;10.924;2023-05-18T10:37:39;15.70;19.30
8422;DHT22;4248;48.196;10.924;2023-05-18T10:40:06;16.00;18.60
8422;DHT22;4248;48.196;10.924;2023-05-18T10:42:33;16.10;18.80
8422;DHT22;4248;48.196;10.924;2023-05-18T10:44:59;15.90;18.70
8422;DHT22;4248;48.196;10.924;2023-05-18T10:47:28;15.90;19.50
8422;DHT22;4248;48.196;10.924;2023-05-18T10:49:54;15.80;18.80
8422;DHT22;4248;48.196;10.924;2023-05-18T10:52:22;15.70;18.80
8422;DHT22;4248;48.196;10.924;2023-05-18T10:54:48;15.60;18.90
8422;DHT22;4248;48.196;10.924;2023-05-18T10:57:16;15.60;19.30
8422;DHT22;4248;48.196;10.924;2023-05-18T10:59:44;15.70;19.40
8422;DHT22;4248;48.196;10.924;2023-05-18T11:02:15;15.90;19.50
8422;DHT22;4248;48.196;10.924;2023-05-18T11:04:41;16.00;19.10
8422;DHT22;4248;48.196;10.924;2023-05-18T11:07:11;16.20;18.60
8422;DHT22;4248;48.196;10.924;2023-05-18T11:09:40;16.40;18.70
8422;DHT22;4248;48.196;10.924;2023-05-18T11:12:15;16.70;18.30
8422;DHT22;4248;48.196;10.924;2023-05-18T11:14:52;16.80;18.10
8422;DHT22;4248;48.196;10.924;2023-05-18T11:17:25;16.80;17.70
8422;DHT22;4248;48.196;10.924;2023-05-18T11:28:07;16.40;17.80
8422;DHT22;4248;48.196;10.924;2023-05-18T11:38:19;15.80;18.90
8422;DHT22;4248;48.196;10.924;2023-05-18T11:40:47;15.60;19.30
8422;DHT22;4248;48.196;10.924;2023-05-18T11:43:22;15.30;19.70
8422;DHT22;4248;48.196;10.924;2023-05-18T11:45:55;15.30;20.30
8422;DHT22;4248;48.196;10.924;2023-05-18T11:48:22;15.70;20.50
8422;DHT22;4248;48.196;10.924;2023-05-18T11:50:48;16.10;19.60
8422;DHT22;4248;48.196;10.924;2023-05-18T11:53:17;16.40;18.90
8422;DHT22;4248;48.196;10.924;2023-05-18T11:55:43;16.20;18.90
8422;DHT22;4248;48.196;10.924;2023-05-18T11:58:10;16.00;19.30
8422;DHT22;4248;48.196;10.924;2023-05-18T12:00:36;15.90;19.50
8422;DHT22;4248;48.196;10.924;2023-05-18T12:03:02;15.90;19.00
8422;DHT22;4248;48.196;10.924;2023-05-18T12:05:31;16.10;18.70
8422;DHT22;4248;48.196;10.924;2023-05-18T12:07:59;16.00;18.90
8422;DHT22;4248;48.196;10.924;2023-05-18T12:10:25;16.00;18.90
8422;DHT22;4248;48.196;10.924;2023-05-18T12:12:52;15.90;18.70
8422;DHT22;4248;48.196;10.924;2023-05-18T12:15:21;15.80;19.10
8422;DHT22;4248;48.196;10.924;2023-05-18T12:17:48;15.80;18.70
8422;DHT22;4248;48.196;10.924;2023-05-18T12:20:15;15.80;18.60
8422;DHT22;4248;48.196;10.924;2023-05-18T12:22:46;15.70;19.30
8422;DHT22;4248;48.196;10.924;2023-05-18T12:25:14;15.80;19.40
8422;DHT22;4248;48.196;10.924;2023-05-18T12:27:41;15.80;19.40
8422;DHT22;4248;48.196;10.924;2023-05-18T12:30:20;15.80;19.40
8422;DHT22;4248;48.196;10.924;2023-05-18T12:32:51;15.70;19.10
8422;DHT22;4248;48.196;10.924;2023-05-18T12:35:24;15.60;19.30
8422;DHT22;4248;48.196;10.924;2023-05-18T12:37:50;15.40;19.10
8422;DHT22;4248;48.196;10.924;2023-05-18T12:40:18;15.20;19.50
8422;DHT22;4248;48.196;10.924;2023-05-18T12:42:51;15.10;19.90
8422;DHT22;4248;48.196;10.924;2023-05-18T12:45:18;15.40;19.50
8422;DHT22;4248;48.196;10.924;2023-05-18T12:47:44;15.60;19.30
8422;DHT22;4248;48.196;10.924;2023-05-18T12:50:10;15.80;19.40
8422;DHT22;4248;48.196;10.924;2023-05-18T12:52:36;15.80;19.40
8422;DHT22;4248;48.196;10.924;2023-05-18T12:55:01;16.00;19.00
8422;DHT22;4248;48.196;10.924;2023-05-18T12:57:29;16.00;19.10
8422;DHT22;4248;48.196;10.924;2023-05-18T12:59:59;15.80;19.40
8422;DHT22;4248;48.196;10.924;2023-05-18T13:02:35;15.80;19.50
8422;DHT22;4248;48.196;10.924;2023-05-18T13:05:02;16.10;19.00
8422;DHT22;4248;48.196;10.924;2023-05-18T13:07:28;16.40;19.70
8422;DHT22;4248;48.196;10.924;2023-05-18T13:09:59;16.70;17.80
8422;DHT22;4248;48.196;10.924;2023-05-18T13:17:36;16.60;16.70
8422;DHT22;4248;48.196;10.924;2023-05-18T13:20:02;16.60;16.70
8422;DHT22;4248;48.196;10.924;2023-05-18T13:22:29;16.60;16.20
8422;DHT22;4248;48.196;10.924;2023-05-18T13:24:55;16.60;16.00
8422;DHT22;4248;48.196;10.924;2023-05-18T13:27:20;16.70;16.00
8422;DHT22;4248;48.196;10.924;2023-05-18T13:29:46;16.80;16.10
8422;DHT22;4248;48.196;10.924;2023-05-18T13:32:12;16.80;16.40
8422;DHT22;4248;48.196;10.924;2023-05-18T13:34:37;16.80;15.70
8422;DHT22;4248;48.196;10.924;2023-05-18T13:37:03;17.00;16.00
8422;DHT22;4248;48.196;10.924;2023-05-18T13:39:28;17.00;15.70
8422;DHT22;4248;48.196;10.924;2023-05-18T13:41:54;17.00;15.40
8422;DHT22;4248;48.196;10.924;2023-05-18T13:44:20;16.90;15.50
8422;DHT22;4248;48.196;10.924;2023-05-18T13:46:45;16.70;15.50
8422;DHT22;4248;48.196;10.924;2023-05-18T13:49:11;16.60;15.90
8422;DHT22;4248;48.196;10.924;2023-05-18T13:51:37;16.40;15.80
8422;DHT22;4248;48.196;10.924;2023-05-18T13:54:03;16.50;16.00
8422;DHT22;4248;48.196;10.924;2023-05-18T13:56:29;16.60;16.00
8422;DHT22;4248;48.196;10.924;2023-05-18T13:58:54;16.80;15.70
8422;DHT22;4248;48.196;10.924;2023-05-18T14:01:20;17.00;15.50
8422;DHT22;4248;48.196;10.924;2023-05-18T14:03:46;16.90;14.80
8422;DHT22;4248;48.196;10.924;2023-05-18T14:06:12;16.90;15.20
8422;DHT22;4248;48.196;10.924;2023-05-18T14:08:37;16.70;15.30
8422;DHT22;4248;48.196;10.924;2023-05-18T14:11:03;16.50;15.10
8422;DHT22;4248;48.196;10.924;2023-05-18T14:13:28;16.20;15.50
8422;DHT22;4248;48.196;10.924;2023-05-18T14:15:54;16.10;15.90
8422;DHT22;4248;48.196;10.924;2023-05-18T14:18:20;16.10;16.10
8422;DHT22;4248;48.196;10.924;2023-05-18T14:20:45;16.10;16.20
8422;DHT22;4248;48.196;10.924;2023-05-18T14:23:12;16.10;16.40
8422;DHT22;4248;48.196;10.924;2023-05-18T14:25:38;16.20;16.70
8422;DHT22;4248;48.196;10.924;2023-05-18T14:28:04;16.00;17.00
8422;DHT22;4248;48.196;10.924;2023-05-18T14:30:29;15.80;17.60
8422;DHT22;4248;48.196;10.924;2023-05-18T14:32:55;15.60;18.10
8422;DHT22;4248;48.196;10.924;2023-05-18T14:35:20;15.60;18.40
8422;DHT22;4248;48.196;10.924;2023-05-18T14:37:46;15.60;18.60
8422;DHT22;4248;48.196;10.924;2023-05-18T14:40:12;15.80;18.40
8422;DHT22;4248;48.196;10.924;2023-05-18T14:42:37;15.90;18.10
8422;DHT22;4248;48.196;10.924;2023-05-18T14:45:03;16.10;17.90
8422;DHT22;4248;48.196;10.924;2023-05-18T14:47:29;16.00;18.20
8422;DHT22;4248;48.196;10.924;2023-05-18T14:49:55;15.90;18.30
8422;DHT22;4248;48.196;10.924;2023-05-18T14:52:20;15.60;18.70
8422;DHT22;4248;48.196;10.924;2023-05-18T14:54:46;15.50;19.20
8422;DHT22;4248;48.196;10.924;2023-05-18T14:57:12;15.30;19.10
8422;DHT22;4248;48.196;10.924;2023-05-18T14:59:37;15.30;19.10
8422;DHT22;4248;48.196;10.924;2023-05-18T15:02:03;15.50;19.20
8422;DHT22;4248;48.196;10.924;2023-05-18T15:04:29;15.50;19.20
8422;DHT22;4248;48.196;10.924;2023-05-18T15:06:54;15.50;19.20
8422;DHT22;4248;48.196;10.924;2023-05-18T15:09:20;15.60;19.30
8422;DHT22;4248;48.196;10.924;2023-05-18T15:11:46;15.60;19.30
8422;DHT22;4248;48.196;10.924;2023-05-18T15:14:11;15.60;19.30
8422;DHT22;4248;48.196;10.924;2023-05-18T15:16:37;15.60;19.30
8422;DHT22;4248;48.196;10.924;2023-05-18T15:19:03;15.60;19.30
8422;DHT22;4248;48.196;10.924;2023-05-18T15:21:29;15.40;19.10
8422;DHT22;4248;48.196;10.924;2023-05-18T15:23:55;15.40;19.60
8422;DHT22;4248;48.196;10.924;2023-05-18T15:26:20;15.30;20.00
8422;DHT22;4248;48.196;10.924;2023-05-18T15:28:46;15.20;20.10
8422;DHT22;4248;48.196;10.924;2023-05-18T15:31:12;15.00;20.20
8422;DHT22;4248;48.196;10.924;2023-05-18T15:33:37;14.80;20.30
8422;DHT22;4248;48.196;10.924;2023-05-18T15:36:07;14.60;20.60
8422;DHT22;4248;48.196;10.924;2023-05-18T15:38:32;14.50;20.80
8422;DHT22;4248;48.196;10.924;2023-05-18T15:40:58;14.40;21.10
8422;DHT22;4248;48.196;10.924;2023-05-18T15:43:23;14.30;21.20
8422;DHT22;4248;48.196;10.924;2023-05-18T15:45:50;14.30;21.40
8422;DHT22;4248;48.196;10.924;2023-05-18T15:48:16;14.20;21.60
8422;DHT22;4248;48.196;10.924;2023-05-18T15:50:41;14.20;21.80
8422;DHT22;4248;48.196;10.924;2023-05-18T15:53:07;14.30;21.80
8422;DHT22;4248;48.196;10.924;2023-05-18T15:55:33;14.20;21.80
8422;DHT22;4248;48.196;10.924;2023-05-18T15:57:58;14.30;22.00
8422;DHT22;4248;48.196;10.924;2023-05-18T16:00:24;14.30;22.00
8422;DHT22;4248;48.196;10.924;2023-05-18T16:02:50;14.20;22.40
8422;DHT22;4248;48.196;10.924;2023-05-18T16:05:16;14.20;22.60
8422;DHT22;4248;48.196;10.924;2023-05-18T16:07:41;14.10;22.80
8422;DHT22;4248;48.196;10.924;2023-05-18T16:10:07;14.10;23.00
8422;DHT22;4248;48.196;10.924;2023-05-18T16:12:33;13.90;23.10
8422;DHT22;4248;48.196;10.924;2023-05-18T16:14:59;13.90;23.40
8422;DHT22;4248;48.196;10.924;2023-05-18T16:17:24;13.80;23.60